Almira, Washington
Current Conditions -  °F | °C
As of 1:10 AM on Tuesday 21 Oct 2014 (Local Time) from KEPH Reporting Station
Scattered Clouds Scattered Clouds  
Wind Chill: 10°   Ceiling: Unl
Heat Index: 10°   Visibility: 10mi
Dew Point:   Wind: 5mph
Humidity: 93%   Direction: 220°SW
Pressure: 29.8"   Gusts: NA
Location:  47.71°N, 118.94°W
Report Text: KEPH 210810Z AUTO 22004KT 10SM SCT006 10/09 A2980 RMK AO2 T01000089
Loading
Personal Weather Stations






























Interactive Weather Map
Tropical Storm Tracking
New forecast layout! Learn more

10-Day Weather Forecast

Advertisements
Track Severe Weather on mobile